Terminal Aerodrome Forecast
Issued by NWS Wilmington, OH

Current Version | Previous Version | Graphics & Text | Print | Product List | Glossary On
Versions: 1 2 3 4 5 6 7 8 9 10 11 12 13 14 15 16 17 18 19 20 21 22
000
FTUS41 KILN 210239 AAG
TAFCMH
TAF AMD
KCMH 210239Z 2103/2124 12006KT P6SM SCT100 BKN250
     FM210500 14007KT P6SM VCTS SCT050CB BKN100
     FM211000 16007KT 4SM SHRA VCTS SCT020 OVC050CB
     FM211400 17010KT 4SM SHRA VCTS OVC015CB
     FM212100 22010KT P6SM OVC035=

USA.gov is the U.S. government's official web portal to all federal, state and local government web resources and services.